createdAt,value
2019-05-06T00:00:24.845Z,4.70
2019-05-06T00:02:54.447Z,4.80
2019-05-06T00:05:25.384Z,4.80
2019-05-06T00:07:54.433Z,4.80
2019-05-06T00:10:28.279Z,4.90
2019-05-06T00:12:57.180Z,5.00
2019-05-06T00:15:25.742Z,4.90
2019-05-06T00:17:54.322Z,5.00
2019-05-06T00:20:24.318Z,5.00
2019-05-06T00:22:57.398Z,5.20
2019-05-06T00:25:34.731Z,5.20
2019-05-06T00:28:10.148Z,5.20
2019-05-06T00:30:40.343Z,5.30
2019-05-06T00:33:08.778Z,5.40
2019-05-06T00:35:37.434Z,5.40
2019-05-06T00:38:05.871Z,5.40
2019-05-06T00:40:47.606Z,5.40
2019-05-06T00:43:16.045Z,5.50
2019-05-06T00:45:44.516Z,5.60
2019-05-06T00:48:13.958Z,5.60
2019-05-06T00:50:44.125Z,5.50
2019-05-06T00:53:14.284Z,5.50
2019-05-06T00:55:44.597Z,5.50
2019-05-06T00:58:14.254Z,5.50
2019-05-06T01:00:44.300Z,5.50
2019-05-06T01:03:14.096Z,5.50
2019-05-06T01:05:44.412Z,5.40
2019-05-06T01:08:14.135Z,5.40
2019-05-06T01:10:44.835Z,5.40
2019-05-06T01:13:29.684Z,5.40
2019-05-06T01:15:58.113Z,5.30
2019-05-06T01:18:26.600Z,5.30
2019-05-06T01:21:09.676Z,5.30
2019-05-06T01:23:43.705Z,5.20
2019-05-06T01:26:14.986Z,5.20
2019-05-06T01:28:44.706Z,5.20
2019-05-06T01:31:13.976Z,5.20
2019-05-06T01:33:45.005Z,5.10
2019-05-06T01:36:14.119Z,5.10
2019-05-06T01:38:50.965Z,5.10
2019-05-06T01:41:21.013Z,5.10
2019-05-06T01:43:49.513Z,5.00
2019-05-06T01:46:17.983Z,5.00
2019-05-06T01:48:49.082Z,5.10
2019-05-06T01:51:24.259Z,5.10
2019-05-06T01:53:54.457Z,5.10
2019-05-06T01:56:24.177Z,5.10
2019-05-06T01:58:53.657Z,5.00
2019-05-06T02:01:22.182Z,5.00
2019-05-06T02:03:50.821Z,5.00
2019-05-06T02:06:19.362Z,5.00
2019-05-06T02:08:47.843Z,4.90
2019-05-06T02:11:16.398Z,4.90
2019-05-06T02:13:45.388Z,4.80
2019-05-06T02:16:14.765Z,4.80
2019-05-06T02:18:44.915Z,4.80
2019-05-06T02:21:17.951Z,4.80
2019-05-06T02:23:47.224Z,4.80
2019-05-06T02:26:15.840Z,4.70
2019-05-06T02:28:45.924Z,4.70
2019-05-06T02:31:35.164Z,4.70
2019-05-06T02:34:05.067Z,4.70
2019-05-06T02:36:51.348Z,4.70
2019-05-06T02:39:23.365Z,4.70
2019-05-06T02:41:50.012Z,4.70
2019-05-06T02:44:18.525Z,4.70
2019-05-06T02:46:48.606Z,4.70
2019-05-06T02:49:18.771Z,4.70
2019-05-06T02:51:47.194Z,4.70
2019-05-06T02:54:15.736Z,4.60
2019-05-06T02:56:44.265Z,4.60
2019-05-06T02:59:13.038Z,4.60
2019-05-06T03:01:43.233Z,4.50
2019-05-06T03:04:13.194Z,4.50
2019-05-06T03:06:44.543Z,4.40
2019-05-06T03:09:13.491Z,4.40
2019-05-06T03:11:43.772Z,4.30
2019-05-06T03:14:13.859Z,4.30
2019-05-06T03:16:43.935Z,4.20
2019-05-06T03:19:13.481Z,4.10
2019-05-06T03:21:44.763Z,4.10
2019-05-06T03:24:18.006Z,4.00
2019-05-06T03:26:45.861Z,3.90
2019-05-06T03:29:14.411Z,3.90
2019-05-06T03:31:46.232Z,3.80
2019-05-06T03:34:35.456Z,3.80
2019-05-06T03:36:48.503Z,3.70
2019-05-06T03:39:13.977Z,3.60
2019-05-06T03:41:43.668Z,3.50
2019-05-06T03:44:16.301Z,3.50
2019-05-06T03:47:05.348Z,3.40
2019-05-06T03:49:37.603Z,3.30
2019-05-06T03:52:06.108Z,3.30
2019-05-06T03:54:35.507Z,3.20
2019-05-06T03:57:04.804Z,3.20
2019-05-06T03:59:34.005Z,3.10
2019-05-06T04:02:05.328Z,3.10
2019-05-06T04:04:33.355Z,3.10
2019-05-06T04:07:03.380Z,3.10
2019-05-06T04:09:36.329Z,3.00
2019-05-06T04:12:03.576Z,3.00
2019-05-06T04:14:33.752Z,3.00
2019-05-06T04:17:07.174Z,3.00
2019-05-06T04:19:40.084Z,3.10
2019-05-06T04:22:12.560Z,3.10
2019-05-06T04:24:44.520Z,3.10
2019-05-06T04:27:53.770Z,3.10
2019-05-06T04:30:24.281Z,3.10
2019-05-06T04:32:53.321Z,3.20
2019-05-06T04:35:22.997Z,3.30
2019-05-06T04:37:53.921Z,3.30
2019-05-06T04:40:23.784Z,3.40
2019-05-06T04:42:52.862Z,3.40
2019-05-06T04:45:23.538Z,3.50
2019-05-06T04:47:53.684Z,3.60
2019-05-06T04:50:24.131Z,3.60
2019-05-06T04:52:56.343Z,3.70
2019-05-06T04:55:24.876Z,3.80
2019-05-06T04:57:54.345Z,3.90
2019-05-06T05:00:23.369Z,4.00
2019-05-06T05:02:54.759Z,4.00
2019-05-06T05:05:23.187Z,4.00
2019-05-06T05:07:52.974Z,4.10
2019-05-06T05:10:26.377Z,4.30
2019-05-06T05:13:13.487Z,4.40
2019-05-06T05:15:49.540Z,4.60
2019-05-06T05:18:25.937Z,4.60
2019-05-06T05:20:54.510Z,4.70
2019-05-06T05:23:23.033Z,4.80
2019-05-06T05:25:52.197Z,4.90
2019-05-06T05:28:22.308Z,4.90
2019-05-06T05:30:52.186Z,5.00
2019-05-06T05:33:22.480Z,5.10
2019-05-06T05:35:52.540Z,5.20
2019-05-06T05:38:22.775Z,5.30
2019-05-06T05:40:52.620Z,5.20
2019-05-06T05:43:23.048Z,5.30
2019-05-06T05:45:52.354Z,5.50
2019-05-06T05:48:38.723Z,5.70
2019-05-06T05:51:07.326Z,5.80
2019-05-06T05:53:36.188Z,5.90
2019-05-06T05:56:04.985Z,6.10
2019-05-06T05:58:33.426Z,6.20
2019-05-06T06:01:04.110Z,6.00
2019-05-06T06:03:32.619Z,6.10
2019-05-06T06:06:03.035Z,6.00
2019-05-06T06:08:32.240Z,6.00
2019-05-06T06:11:17.735Z,6.00
2019-05-06T06:13:46.230Z,6.00
2019-05-06T06:16:19.482Z,6.20
2019-05-06T06:19:04.174Z,6.30
2019-05-06T06:21:37.315Z,6.20
2019-05-06T06:24:07.537Z,6.30
2019-05-06T06:26:36.051Z,6.40
2019-05-06T06:29:04.640Z,6.40
2019-05-06T06:31:46.652Z,6.40
2019-05-06T06:34:35.046Z,6.70
2019-05-06T06:37:22.601Z,7.00
2019-05-06T06:39:52.682Z,7.00
2019-05-06T06:42:22.188Z,6.80
2019-05-06T06:44:52.054Z,7.10
2019-05-06T06:47:22.462Z,7.40
2019-05-06T06:49:53.280Z,7.30
2019-05-06T06:52:23.145Z,7.60
2019-05-06T06:54:52.633Z,7.60
2019-05-06T06:57:26.139Z,7.50
2019-05-06T07:00:00.091Z,7.40
2019-05-06T07:02:32.678Z,7.70
2019-05-06T07:05:27.689Z,8.20
2019-05-06T07:07:47.987Z,9.00
2019-05-06T07:10:33.228Z,9.00
2019-05-06T07:13:02.853Z,9.80
2019-05-06T07:15:33.673Z,10.20
2019-05-06T07:18:02.499Z,10.10
2019-05-06T07:20:38.560Z,9.70
2019-05-06T07:23:23.817Z,9.60
2019-05-06T07:25:53.704Z,10.00
2019-05-06T07:28:23.333Z,10.20
2019-05-06T07:30:52.242Z,11.00
2019-05-06T07:33:22.948Z,10.50
2019-05-06T07:35:53.054Z,10.80
2019-05-06T07:38:23.150Z,10.60
2019-05-06T07:40:53.574Z,11.40
2019-05-06T07:43:33.886Z,10.70
2019-05-06T07:46:23.369Z,10.50
2019-05-06T07:48:51.901Z,9.90
2019-05-06T07:51:20.518Z,10.10
2019-05-06T07:53:48.970Z,9.90
2019-05-06T07:56:17.433Z,9.90
2019-05-06T07:58:45.860Z,10.00
2019-05-06T08:01:14.455Z,10.00
2019-05-06T08:03:43.298Z,9.90
2019-05-06T08:06:13.272Z,10.20
2019-05-06T08:08:43.322Z,10.00
2019-05-06T08:11:12.450Z,10.30
2019-05-06T08:13:43.210Z,11.00
2019-05-06T08:16:13.172Z,10.90
2019-05-06T08:18:42.528Z,10.40
2019-05-06T08:21:15.598Z,10.60
2019-05-06T08:23:45.664Z,10.50
2019-05-06T08:26:17.609Z,10.30
2019-05-06T08:28:44.709Z,10.20
2019-05-06T08:31:13.307Z,10.50
2019-05-06T08:33:43.172Z,10.40
2019-05-06T08:36:14.939Z,10.60
2019-05-06T08:39:02.834Z,10.30
2019-05-06T08:41:33.163Z,10.80
2019-05-06T08:44:02.675Z,10.90
2019-05-06T08:46:32.670Z,11.60
2019-05-06T08:49:03.107Z,11.40
2019-05-06T08:51:39.628Z,12.10
2019-05-06T08:54:27.620Z,11.40
2019-05-06T08:56:56.183Z,11.10
2019-05-06T08:59:24.658Z,10.80
2019-05-06T09:01:55.196Z,10.50
2019-05-06T09:04:23.747Z,10.10
2019-05-06T09:06:53.355Z,9.70
2019-05-06T09:09:22.515Z,9.50
2019-05-06T09:11:53.213Z,9.80
2019-05-06T09:14:23.234Z,10.00
2019-05-06T09:16:53.851Z,11.10
2019-05-06T09:19:23.280Z,11.40
2019-05-06T09:21:53.316Z,11.70
2019-05-06T09:24:23.018Z,12.10
2019-05-06T09:26:53.604Z,12.50
2019-05-06T09:29:38.610Z,12.00
2019-05-06T09:32:08.723Z,11.20
2019-05-06T09:34:38.930Z,10.40
2019-05-06T09:37:18.138Z,10.20
2019-05-06T09:39:46.863Z,10.30
2019-05-06T09:42:15.720Z,10.60
2019-05-06T09:44:45.429Z,10.80
2019-05-06T09:47:33.062Z,10.40
2019-05-06T09:50:02.791Z,10.20
2019-05-06T09:52:33.350Z,10.10
2019-05-06T09:55:18.363Z,10.50
2019-05-06T09:57:57.352Z,10.50
2019-05-06T10:00:28.228Z,11.10
2019-05-06T10:02:56.898Z,11.10
2019-05-06T10:05:25.410Z,10.60
2019-05-06T10:07:53.998Z,10.50
2019-05-06T10:10:22.565Z,10.80
2019-05-06T10:12:53.016Z,10.50
2019-05-06T10:15:21.990Z,10.50
2019-05-06T10:18:09.012Z,10.40
2019-05-06T10:20:43.210Z,10.50
2019-05-06T10:23:12.164Z,11.10
2019-05-06T10:25:43.374Z,10.80
2019-05-06T10:28:13.468Z,11.30
2019-05-06T10:30:42.124Z,11.90
2019-05-06T10:33:12.376Z,12.30
2019-05-06T10:35:42.861Z,11.90
2019-05-06T10:38:23.003Z,11.40
2019-05-06T10:41:00.760Z,11.20
2019-05-06T10:43:27.873Z,11.20
2019-05-06T10:45:56.351Z,11.80
2019-05-06T10:48:24.868Z,12.00
2019-05-06T10:50:57.401Z,12.70
2019-05-06T10:53:26.002Z,12.70
2019-05-06T10:55:55.813Z,12.40
2019-05-06T10:58:24.328Z,12.60
2019-05-06T11:00:54.646Z,12.60
2019-05-06T11:03:23.625Z,12.10
2019-05-06T11:05:53.507Z,12.20
2019-05-06T11:08:22.304Z,11.80
2019-05-06T11:10:53.178Z,11.20
2019-05-06T11:13:21.119Z,11.10
2019-05-06T11:15:49.599Z,10.80
2019-05-06T11:18:18.098Z,10.50
2019-05-06T11:20:46.656Z,10.40
2019-05-06T11:23:15.091Z,10.50
2019-05-06T11:25:43.596Z,10.60
2019-05-06T11:28:29.648Z,10.60
2019-05-06T11:31:02.248Z,10.60
2019-05-06T11:33:32.904Z,10.80
2019-05-06T11:36:05.679Z,11.10
2019-05-06T11:38:34.150Z,10.90
2019-05-06T11:41:02.800Z,11.00
2019-05-06T11:43:32.500Z,11.00
2019-05-06T11:46:01.146Z,11.30
2019-05-06T11:48:29.587Z,12.10
2019-05-06T11:50:59.763Z,11.80
2019-05-06T11:53:28.327Z,11.60
2019-05-06T11:55:56.852Z,11.70
2019-05-06T11:58:33.078Z,11.70
2019-05-06T12:01:03.408Z,11.70
2019-05-06T12:03:32.685Z,11.80
2019-05-06T12:06:03.698Z,12.00
2019-05-06T12:08:32.666Z,12.50
2019-05-06T12:11:02.949Z,13.40
2019-05-06T12:13:33.699Z,13.30
2019-05-06T12:16:02.463Z,13.10
2019-05-06T12:18:31.060Z,13.30
2019-05-06T12:21:09.142Z,13.50
2019-05-06T12:23:29.842Z,13.80
2019-05-06T12:25:58.358Z,13.40
2019-05-06T12:28:26.831Z,13.70
2019-05-06T12:30:56.487Z,13.40
2019-05-06T12:33:29.588Z,12.70
2019-05-06T12:35:59.795Z,13.20
2019-05-06T12:38:31.081Z,13.60
2019-05-06T12:41:00.119Z,14.10
2019-05-06T12:43:32.957Z,13.60
2019-05-06T12:46:05.497Z,13.60
2019-05-06T12:48:38.506Z,13.50
2019-05-06T12:51:07.040Z,13.80
2019-05-06T12:53:35.536Z,13.90
2019-05-06T12:56:04.040Z,14.40
2019-05-06T12:58:32.646Z,14.10
2019-05-06T13:01:04.034Z,14.40
2019-05-06T13:03:32.572Z,13.90
2019-05-06T13:06:07.474Z,14.40
2019-05-06T13:08:51.725Z,14.00
2019-05-06T13:11:02.601Z,13.50
2019-05-06T13:13:33.211Z,14.00
2019-05-06T13:16:02.772Z,14.40
2019-05-06T13:18:32.760Z,13.80
2019-05-06T13:21:04.419Z,14.10
2019-05-06T13:23:35.051Z,13.60
2019-05-06T13:26:03.433Z,13.60
2019-05-06T13:28:33.580Z,13.30
2019-05-06T13:31:15.786Z,13.70
2019-05-06T13:33:46.314Z,12.90
2019-05-06T13:36:14.882Z,12.40
2019-05-06T13:38:43.478Z,12.40
2019-05-06T13:41:12.684Z,12.50
2019-05-06T13:43:43.634Z,12.50
2019-05-06T13:46:14.114Z,12.40
2019-05-06T13:49:02.909Z,12.50
2019-05-06T13:51:42.998Z,12.40
2019-05-06T13:54:15.769Z,12.50
2019-05-06T13:56:42.590Z,12.90
2019-05-06T13:59:12.906Z,13.00
2019-05-06T14:01:44.056Z,13.00
2019-05-06T14:04:14.487Z,13.00
2019-05-06T14:06:43.426Z,12.90
2019-05-06T14:09:27.913Z,12.60
2019-05-06T14:11:42.483Z,12.80
2019-05-06T14:14:12.511Z,12.80
2019-05-06T14:16:42.634Z,12.50
2019-05-06T14:19:13.216Z,12.40
2019-05-06T14:21:43.247Z,12.20
2019-05-06T14:24:13.330Z,12.20
2019-05-06T14:26:58.471Z,12.10
2019-05-06T14:29:33.181Z,12.40
2019-05-06T14:32:01.992Z,12.80
2019-05-06T14:34:32.507Z,12.50
2019-05-06T14:37:00.874Z,12.50
2019-05-06T14:39:48.537Z,12.80
2019-05-06T14:42:04.226Z,12.70
2019-05-06T14:44:32.786Z,13.10
2019-05-06T14:47:08.748Z,13.50
2019-05-06T14:49:37.158Z,13.70
2019-05-06T14:52:05.604Z,13.30
2019-05-06T14:54:35.887Z,13.30
2019-05-06T14:57:14.210Z,12.80
2019-05-06T14:59:42.767Z,13.10
2019-05-06T15:02:13.234Z,13.40
2019-05-06T15:04:43.476Z,13.40
2019-05-06T15:07:12.778Z,12.80
2019-05-06T15:09:57.719Z,12.70
2019-05-06T15:12:14.255Z,12.70
2019-05-06T15:14:43.212Z,12.70
2019-05-06T15:17:11.633Z,12.60
2019-05-06T15:19:42.685Z,12.30
2019-05-06T15:22:10.361Z,12.20
2019-05-06T15:24:38.870Z,12.30
2019-05-06T15:27:07.633Z,12.70
2019-05-06T15:29:36.216Z,12.80
2019-05-06T15:32:06.494Z,13.30
2019-05-06T15:34:42.288Z,13.40
2019-05-06T15:37:13.823Z,13.00
2019-05-06T15:39:43.763Z,12.90
2019-05-06T15:42:12.920Z,12.90
2019-05-06T15:44:42.462Z,12.70
2019-05-06T15:47:13.205Z,12.50
2019-05-06T15:49:41.986Z,12.30
2019-05-06T15:52:12.477Z,12.30
2019-05-06T15:54:42.870Z,12.20
2019-05-06T15:57:11.242Z,12.20
2019-05-06T15:59:42.168Z,12.10
2019-05-06T16:02:10.215Z,12.00
2019-05-06T16:04:38.842Z,12.00
2019-05-06T16:07:07.515Z,12.20
2019-05-06T16:09:36.114Z,12.20
2019-05-06T16:12:04.787Z,12.30
2019-05-06T16:14:34.861Z,12.30
2019-05-06T16:17:03.856Z,12.40
2019-05-06T16:19:33.248Z,12.50
2019-05-06T16:22:04.105Z,12.70
2019-05-06T16:24:42.843Z,13.00
2019-05-06T16:27:12.401Z,12.70
2019-05-06T16:29:42.919Z,12.80
2019-05-06T16:32:10.872Z,12.60
2019-05-06T16:34:39.461Z,12.40
2019-05-06T16:37:08.049Z,12.30
2019-05-06T16:39:36.626Z,12.40
2019-05-06T16:42:05.389Z,12.30
2019-05-06T16:44:34.130Z,12.10
2019-05-06T16:47:03.041Z,11.90
2019-05-06T16:49:33.214Z,11.90
2019-05-06T16:52:02.642Z,11.80
2019-05-06T16:54:34.393Z,11.80
2019-05-06T16:57:03.709Z,11.70
2019-05-06T16:59:33.471Z,11.90
2019-05-06T17:02:03.775Z,11.70
2019-05-06T17:04:34.087Z,11.60
2019-05-06T17:07:03.082Z,11.50
2019-05-06T17:09:32.739Z,11.50
2019-05-06T17:12:04.447Z,11.60
2019-05-06T17:14:32.598Z,11.40
2019-05-06T17:17:03.182Z,11.40
2019-05-06T17:19:32.401Z,11.50
2019-05-06T17:22:03.056Z,11.40
2019-05-06T17:24:33.106Z,11.50
2019-05-06T17:27:02.744Z,11.60
2019-05-06T17:29:51.086Z,11.60
2019-05-06T17:32:23.755Z,11.40
2019-05-06T17:34:57.393Z,11.30
2019-05-06T17:37:42.535Z,11.20
2019-05-06T17:40:14.036Z,11.30
2019-05-06T17:42:43.069Z,11.30
2019-05-06T17:45:31.988Z,11.20
2019-05-06T17:48:02.795Z,11.10
2019-05-06T17:50:32.673Z,11.10
2019-05-06T17:53:01.872Z,11.00
2019-05-06T17:55:32.455Z,10.90
2019-05-06T17:58:02.518Z,11.00
2019-05-06T18:00:32.385Z,11.00
2019-05-06T18:03:02.484Z,10.90
2019-05-06T18:05:32.501Z,10.90
2019-05-06T18:08:02.935Z,10.90
2019-05-06T18:10:33.489Z,10.90
2019-05-06T18:13:03.061Z,10.80
2019-05-06T18:15:32.614Z,10.70
2019-05-06T18:18:02.165Z,10.70
2019-05-06T18:20:33.550Z,10.70
2019-05-06T18:23:02.099Z,10.60
2019-05-06T18:25:32.891Z,10.60
2019-05-06T18:28:01.016Z,10.50
2019-05-06T18:30:33.558Z,10.50
2019-05-06T18:32:59.722Z,10.40
2019-05-06T18:35:28.182Z,10.40
2019-05-06T18:37:56.768Z,10.30
2019-05-06T18:40:25.334Z,10.20
2019-05-06T18:42:53.858Z,10.20
2019-05-06T18:45:22.494Z,10.10
2019-05-06T18:47:53.007Z,10.00
2019-05-06T18:50:22.091Z,9.90
2019-05-06T18:52:52.861Z,9.90
2019-05-06T18:55:22.335Z,9.70
2019-05-06T18:57:52.902Z,9.60
2019-05-06T19:00:22.457Z,9.40
2019-05-06T19:02:52.263Z,9.30
2019-05-06T19:05:27.111Z,9.10
2019-05-06T19:07:55.665Z,8.90
2019-05-06T19:10:25.907Z,8.80
2019-05-06T19:12:54.515Z,8.60
2019-05-06T19:15:23.096Z,8.40
2019-05-06T19:17:52.649Z,8.20
2019-05-06T19:20:21.939Z,8.10
2019-05-06T19:22:53.459Z,7.90
2019-05-06T19:25:22.677Z,7.70
2019-05-06T19:27:53.093Z,7.60
2019-05-06T19:30:23.410Z,7.50
2019-05-06T19:32:53.109Z,7.40
2019-05-06T19:35:21.773Z,7.20
2019-05-06T19:37:50.281Z,7.10
2019-05-06T19:40:18.982Z,7.00
2019-05-06T19:42:50.149Z,6.90
2019-05-06T19:45:17.819Z,6.80
2019-05-06T19:47:46.245Z,6.70
2019-05-06T19:50:15.099Z,6.60
2019-05-06T19:52:43.563Z,6.60
2019-05-06T19:55:12.407Z,6.50
2019-05-06T19:57:42.974Z,6.40
2019-05-06T20:00:11.747Z,6.40
2019-05-06T20:02:40.309Z,6.30
2019-05-06T20:05:12.093Z,6.20
2019-05-06T20:07:42.913Z,6.20
2019-05-06T20:10:25.001Z,6.10
2019-05-06T20:13:02.765Z,6.10
2019-05-06T20:15:42.833Z,6.00
2019-05-06T20:18:11.453Z,6.00
2019-05-06T20:20:42.064Z,5.90
2019-05-06T20:23:12.519Z,5.90
2019-05-06T20:25:42.610Z,5.90
2019-05-06T20:28:13.155Z,5.90
2019-05-06T20:30:42.286Z,5.80
2019-05-06T20:33:13.013Z,5.80
2019-05-06T20:35:43.203Z,5.80
2019-05-06T20:38:12.576Z,5.80
2019-05-06T20:40:43.017Z,5.80
2019-05-06T20:43:19.330Z,5.70
2019-05-06T20:45:42.860Z,5.70
2019-05-06T20:48:12.871Z,5.70
2019-05-06T20:50:42.972Z,5.70
2019-05-06T20:53:12.101Z,5.70
2019-05-06T20:55:43.119Z,5.60
2019-05-06T20:58:12.251Z,5.60
2019-05-06T21:00:43.030Z,5.60
2019-05-06T21:03:12.174Z,5.60
2019-05-06T21:05:43.237Z,5.50
2019-05-06T21:08:13.011Z,5.50
2019-05-06T21:10:43.647Z,5.50
2019-05-06T21:13:13.377Z,5.50
2019-05-06T21:15:43.167Z,5.50
2019-05-06T21:18:12.237Z,5.50
2019-05-06T21:20:43.363Z,5.60
2019-05-06T21:23:11.361Z,5.60
2019-05-06T21:25:39.968Z,5.60
2019-05-06T21:28:08.582Z,5.60
2019-05-06T21:30:37.234Z,5.60
2019-05-06T21:33:05.645Z,5.70
2019-05-06T21:35:34.470Z,5.70
2019-05-06T21:38:02.922Z,5.80
2019-05-06T21:40:32.282Z,5.70
2019-05-06T21:43:02.072Z,5.70
2019-05-06T21:45:32.903Z,5.70
2019-05-06T21:48:02.822Z,5.70
2019-05-06T21:50:33.110Z,5.70
2019-05-06T21:53:02.692Z,5.70
2019-05-06T21:55:32.349Z,5.70
2019-05-06T21:58:02.171Z,5.70
2019-05-06T22:00:43.449Z,5.70
2019-05-06T22:03:13.442Z,5.80
2019-05-06T22:05:42.158Z,5.80
2019-05-06T22:08:12.669Z,5.90
2019-05-06T22:10:42.157Z,5.90
2019-05-06T22:13:14.288Z,5.90
2019-05-06T22:15:42.132Z,5.90
2019-05-06T22:18:12.523Z,5.90
2019-05-06T22:20:58.745Z,6.00
2019-05-06T22:23:28.865Z,6.00
2019-05-06T22:26:08.573Z,6.00
2019-05-06T22:28:27.582Z,6.10
2019-05-06T22:30:56.095Z,6.20
2019-05-06T22:33:24.574Z,6.20
2019-05-06T22:35:54.932Z,6.30
2019-05-06T22:38:23.475Z,6.30
2019-05-06T22:40:52.993Z,6.30
2019-05-06T22:43:22.000Z,6.30
2019-05-06T22:45:50.551Z,6.30
2019-05-06T22:48:18.990Z,6.40
2019-05-06T22:50:49.126Z,6.40
2019-05-06T22:53:17.620Z,6.50
2019-05-06T22:55:46.092Z,6.50
2019-05-06T22:58:14.579Z,6.60
2019-05-06T23:00:44.771Z,6.60
2019-05-06T23:03:14.808Z,6.70
2019-05-06T23:05:43.282Z,6.70
2019-05-06T23:08:12.318Z,6.70
2019-05-06T23:10:42.293Z,6.70
2019-05-06T23:13:12.430Z,6.70
2019-05-06T23:15:42.071Z,6.70
2019-05-06T23:18:10.786Z,6.70
2019-05-06T23:20:39.388Z,6.70
2019-05-06T23:23:07.965Z,6.60
2019-05-06T23:25:36.487Z,6.60
2019-05-06T23:28:05.247Z,6.60
2019-05-06T23:30:33.808Z,6.60
2019-05-06T23:33:02.382Z,6.60
2019-05-06T23:35:30.895Z,6.60
2019-05-06T23:38:35.467Z,6.60
2019-05-06T23:41:42.190Z,6.60
2019-05-06T23:44:46.391Z,6.50
2019-05-06T23:47:52.979Z,6.60
2019-05-06T23:50:56.699Z,6.50
2019-05-06T23:54:03.058Z,6.50
2019-05-06T23:56:42.882Z,6.40
2019-05-06T23:59:12.847Z,6.40
